Linn, Texas
Current Conditions -  °F | °C
As of 5:15 AM on Thursday 23 Oct 2014 (Local Time) from KEBG Reporting Station
Scattered Clouds Scattered Clouds  
Wind Chill: 68°   Ceiling: Unl
Heat Index: 68°   Visibility: 7mi
Dew Point: 65°   Wind: 5mph
Humidity: 90%   Direction: 310°NW
Pressure: 30.02"   Gusts: NA
Location:  26.56°N, 98.12°W
Report Text: KEBG 231015Z AUTO 31004KT 7SM SCT030 20/18 A3002 RMK AO2 T01980182
Loading
Personal Weather Stations






























Interactive Weather Map
Tropical Storm Tracking
New forecast layout! Learn more

10-Day Weather Forecast

Advertisements
Track Severe Weather on mobile